Time;durP1;ratioP1;P1;durP2;ratioP2;P2;SDS_P1;SDS_P2;PMS_P1;PMS_P2;Temp;Humidity;BMP_temperature;BMP_pressure;BME280_temperature;BME280_humidity;BME280_pressure;Samples;Min_cycle;Max_cycle;Signal;HPM_P1;HPM_P2
2022/02/17 00:01:17;;;;;;;5.50;2.60;;;;;;;9.15;66.46;97902.27;108282;1282;22426;-78
2022/02/17 00:05:00;;;;;;;;;;;;;;;;;;;;;
2022/02/17 00:07:54;;;;;;;5.30;3.00;;;;;;;9.24;66.53;97873.48;108315;1280;22001;-78
2022/02/17 00:11:25;;;;;;;;;;;;;;;;;;;;;
2022/02/17 00:14:32;;;;;;;;;;;;;;;;;;;;;
2022/02/17 00:18:20;;;;;;;4.70;3.40;;;;;;;9.26;66.55;97818.13;108193;1279;21998;-79
2022/02/17 00:21:31;;;;;;;6.90;4.00;;;;;;;9.23;66.60;97787.45;108714;1273;24334;-79
2022/02/17 00:25:06;;;;;;;4.50;3.20;;;;;;;9.19;66.82;97776.07;108936;1265;23095;-78
2022/02/17 00:28:34;;;;;;;3.90;3.10;;;;;;;9.19;67.17;97776.84;109393;1266;21979;-78
2022/02/17 00:32:09;;;;;;;;;;;;;;;;;;;;;
2022/02/17 00:35:49;;;;;;;4.40;2.70;;;;;;;9.22;67.68;97742.48;108905;1265;22001;-78
2022/02/17 00:39:21;;;;;;;4.40;3.40;;;;;;;9.23;67.89;97724.15;108998;1267;23685;-79
2022/02/17 00:42:15;;;;;;;;;;;;;;;;;;;;;
2022/02/17 00:45:45;;;;;;;5.20;2.10;;;;;;;9.25;68.35;97705.23;108779;1268;22047;-77
2022/02/17 00:48:53;;;;;;;;;;;;;;;;;;;;;
2022/02/17 00:52:51;;;;;;;;;;;;;;;;;;;;;
2022/02/17 00:56:34;;;;;;;;;;;;;;;;;;;;;
2022/02/17 00:59:42;;;;;;;2.80;1.90;;;;;;;9.08;70.34;97649.98;108638;1273;22014;-79
2022/02/17 01:03:26;;;;;;;2.80;2.10;;;;;;;9.04;70.43;97625.10;108482;1276;23062;-78
2022/02/17 01:08:11;;;;;;;;;;;;;;;;;;;;;
2022/02/17 01:11:39;;;;;;;2.20;1.60;;;;;;;8.99;71.32;97596.07;108360;1280;22074;-78
2022/02/17 01:15:18;;;;;;;3.20;1.80;;;;;;;9.03;71.53;97583.63;108324;1279;22016;-80
2022/02/17 01:19:13;;;;;;;;;;;;;;;;;;;;;
2022/02/17 01:26:07;;;;;;;;;;;;;;;;;;;;;
2022/02/17 01:29:14;;;;;;;3.70;1.60;;;;;;;9.13;71.88;97554.66;108395;1274;22012;-79
2022/02/17 01:32:23;;;;;;;4.50;1.30;;;;;;;9.19;71.96;97564.50;108923;1270;22076;-79
2022/02/17 01:35:29;;;;;;;3.20;1.70;;;;;;;9.24;71.85;97543.11;108724;1270;21995;-79
2022/02/17 01:38:14;;;;;;;2.40;1.40;;;;;;;9.23;71.88;97533.40;107748;1286;22808;-79
2022/02/17 01:41:05;;;;;;;;;;;;;;;;;;;;;
2022/02/17 01:43:47;;;;;;;;;;;;;;;;;;;;;
2022/02/17 01:47:07;;;;;;;2.30;1.10;;;;;;;9.25;72.32;97491.84;107813;1279;24217;-81
2022/02/17 01:50:10;;;;;;;;;;;;;;;;;;;;;
2022/02/17 01:53:50;;;;;;;;;;;;;;;;;;;;;
2022/02/17 01:57:27;;;;;;;;;;;;;;;;;;;;;
2022/02/17 02:00:40;;;;;;;2.30;1.30;;;;;;;9.41;72.31;97428.80;107650;1289;23996;-80
2022/02/17 02:04:12;;;;;;;1.90;1.10;;;;;;;9.43;72.46;97416.52;107167;1292;23775;-79
2022/02/17 02:06:57;;;;;;;3.00;1.30;;;;;;;9.46;72.47;97416.35;107061;1291;22042;-78
2022/02/17 02:09:43;;;;;;;2.20;1.10;;;;;;;9.48;72.56;97417.66;107031;1293;22060;-79
2022/02/17 02:12:39;;;;;;;2.70;1.40;;;;;;;9.47;72.47;97405.01;107023;1293;22040;-79
2022/02/17 02:16:14;;;;;;;;;;;;;;;;;;;;;
2022/02/17 02:19:36;;;;;;;2.50;1.10;;;;;;;9.46;72.77;97358.66;107987;1282;22080;-79
2022/02/17 02:23:01;;;;;;;1.90;1.00;;;;;;;9.48;72.79;97355.20;108111;1282;23712;-78
2022/02/17 02:26:46;;;;;;;;;;;;;;;;;;;;;
2022/02/17 02:29:53;;;;;;;2.10;1.20;;;;;;;9.56;72.94;97338.39;107434;1289;24403;-78
2022/02/17 02:33:29;;;;;;;1.70;0.80;;;;;;;9.63;73.08;97325.40;108411;1281;23625;-80
2022/02/17 02:36:32;;;;;;;;;;;;;;;;;;;;;
2022/02/17 02:40:05;;;;;;;1.50;0.90;;;;;;;9.84;72.89;97309.75;108531;1270;22007;-80
2022/02/17 02:43:13;;;;;;;2.10;1.00;;;;;;;9.90;72.64;97303.83;108381;1280;22047;-80
2022/02/17 02:46:18;;;;;;;;;;;;;;;;;;;;;
2022/02/17 02:50:04;;;;;;;1.00;0.70;;;;;;;9.99;72.32;97295.83;108416;1276;23796;-80
2022/02/17 02:53:46;;;;;;;1.50;0.80;;;;;;;10.07;72.15;97287.30;108193;1279;22010;-78
2022/02/17 02:57:10;;;;;;;;;;;;;;;;;;;;;
2022/02/17 03:00:22;;;;;;;;;;;;;;;;;;;;;
2022/02/17 03:03:32;;;;;;;1.90;0.90;;;;;;;10.10;71.49;97245.79;108848;1270;23043;-80
2022/02/17 03:06:44;;;;;;;2.20;0.90;;;;;;;10.10;71.48;97247.32;108853;1270;23515;-79
2022/02/17 03:10:27;;;;;;;;;;;;;;;;;;;;;
2022/02/17 03:14:03;;;;;;;;;;;;;;;;;;;;;
2022/02/17 03:16:54;;;;;;;2.20;0.90;;;;;;;10.17;71.56;97235.02;108331;1276;22011;-78
2022/02/17 03:20:29;;;;;;;3.50;1.30;;;;;;;10.20;71.41;97227.78;108180;1278;22158;-79
2022/02/17 03:23:54;;;;;;;1.80;1.00;;;;;;;10.21;71.24;97212.13;108239;1278;22077;-78
2022/02/17 03:27:11;;;;;;;1.60;1.00;;;;;;;10.21;71.21;97195.20;108040;1280;22221;-79
2022/02/17 03:30:09;;;;;;;;;;;;;;;;;;;;;
2022/02/17 03:33:55;;;;;;;;;;;;;;;;;;;;;
2022/02/17 03:37:10;;;;;;;1.40;0.90;;;;;;;10.38;71.10;97155.94;108014;1279;23119;-77
2022/02/17 03:40:58;;;;;;;1.20;0.80;;;;;;;10.45;71.00;97151.21;108670;1273;22390;-79
2022/02/17 03:44:16;;;;;;;1.20;0.80;;;;;;;10.50;70.80;97126.69;108808;1270;21985;-79
2022/02/17 03:47:02;;;;;;;1.40;0.90;;;;;;;10.55;70.56;97113.23;108992;1270;22392;-79
2022/02/17 03:50:36;;;;;;;1.40;0.80;;;;;;;10.60;70.41;97112.33;109495;1264;22372;-80
2022/02/17 03:54:08;;;;;;;1.90;1.00;;;;;;;10.65;70.37;97114.09;109226;1260;23691;-79
2022/02/17 03:57:49;;;;;;;;;;;;;;;;;;;;;
2022/02/17 04:01:15;;;;;;;1.40;1.00;;;;;;;10.77;70.07;97213.86;110672;1254;21976;-78
2022/02/17 04:04:18;;;;;;;;;;;;;;;;;;;;;
2022/02/17 04:07:40;;;;;;;;;;;;;;;;;;;;;
2022/02/17 04:16:17;;;;;;;;;;;;;;;;;;;;;
2022/02/17 04:19:59;;;;;;;;;;;;;;;;;;;;;
2022/02/17 04:23:34;;;;;;;;;;;;;;;;;;;;;
2022/02/17 04:27:21;;;;;;;6.00;2.20;;;;;;;7.24;70.43;97567.70;107599;1286;22044;-78
2022/02/17 04:30:59;;;;;;;;;;;;;;;;;;;;;
2022/02/17 04:49:51;;;;;;;;;;;;;;;;;;;;;
2022/02/17 04:53:37;;;;;;;10.80;8.00;;;;;;;8.06;68.76;97485.05;104852;1247;8439783;-78
2022/02/17 05:00:52;;;;;;;;;;;;;;;;;;;;;
2022/02/17 05:05:18;;;;;;;;;;;;;;;;;;;;;
2022/02/17 05:09:43;;;;;;;5.80;3.50;;;;;;;6.91;71.79;97351.48;108338;1277;22022;-79
2022/02/17 05:13:32;;;;;;;;;;;;;;;;;;;;;
2022/02/17 05:17:50;;;;;;;;;;;;;;;;;;;;;
2022/02/17 05:21:20;;;;;;;10.00;4.10;;;;;;;6.47;72.44;97361.73;108014;1284;22002;-79
2022/02/17 05:24:14;;;;;;;8.30;3.40;;;;;;;6.37;72.79;97378.90;108394;1280;22901;-79
2022/02/17 05:27:25;;;;;;;5.20;2.90;;;;;;;6.29;73.00;97384.61;107839;1286;22027;-79
2022/02/17 05:30:50;;;;;;;9.30;3.60;;;;;;;6.23;73.29;97396.67;107573;1289;22120;-80
2022/02/17 05:34:17;;;;;;;8.70;5.70;;;;;;;6.16;73.57;97384.13;107816;1283;22012;-79
2022/02/17 05:37:35;;;;;;;11.80;9.40;;;;;;;6.12;73.95;97356.86;109165;1269;22915;-77
2022/02/17 05:45:25;;;;;;;14.20;9.90;;;;;;;6.20;74.57;97369.35;108814;1269;22011;-79
2022/02/17 05:49:07;;;;;;;20.10;10.50;;;;;;;6.25;74.67;97357.16;108348;1276;22008;-78
2022/02/17 05:52:02;;;;;;;19.10;9.50;;;;;;;6.28;74.77;97328.69;108602;1273;23063;-79
2022/02/17 05:55:12;;;;;;;;;;;;;;;;;;;;;
2022/02/17 05:57:58;;;;;;;;;;;;;;;;;;;;;
2022/02/17 06:01:09;;;;;;;16.60;9.10;;;;;;;6.44;75.02;97308.20;108816;1264;23116;-77
2022/02/17 06:04:20;;;;;;;12.70;7.70;;;;;;;6.51;75.02;97335.01;109092;1267;22084;-78
2022/02/17 06:07:38;;;;;;;11.00;6.90;;;;;;;6.56;74.94;97359.30;109008;1267;22019;-78
2022/02/17 06:10:53;;;;;;;;;;;;;;;;;;;;;
2022/02/17 06:14:06;;;;;;;;;;;;;;;;;;;;;
2022/02/17 06:17:06;;;;;;;7.70;4.50;;;;;;;6.70;74.99;97391.78;109006;1266;22063;-77
2022/02/17 06:20:20;;;;;;;;;;;;;;;;;;;;;
2022/02/17 06:23:43;;;;;;;11.50;5.60;;;;;;;6.80;74.88;97417.17;109241;1267;22022;-78
2022/02/17 06:31:21;;;;;;;;;;;;;;;;;;;;;
2022/02/17 06:34:04;;;;;;;11.60;5.40;;;;;;;6.93;74.58;97384.84;108590;1273;22054;-78
2022/02/17 06:36:48;;;;;;;;;;;;;;;;;;;;;
2022/02/17 06:39:45;;;;;;;11.00;5.40;;;;;;;7.03;74.45;97387.52;108419;1273;23631;-78
2022/02/17 06:42:26;;;;;;;;;;;;;;;;;;;;;
2022/02/17 06:45:41;;;;;;;;;;;;;;;;;;;;;
2022/02/17 06:48:28;;;;;;;;;;;;;;;;;;;;;
2022/02/17 06:52:01;;;;;;;;;;;;;;;;;;;;;
2022/02/17 06:55:50;;;;;;;;;;;;;;;;;;;;;
2022/02/17 06:59:29;;;;;;;;;;;;;;;;;;;;;
2022/02/17 07:03:06;;;;;;;;;;;;;;;;;;;;;
2022/02/17 07:07:32;;;;;;;;;;;;;;;;;;;;;
2022/02/17 07:14:12;;;;;;;7.20;4.30;;;;;;;7.54;73.97;97387.28;109058;1269;21966;-80
2022/02/17 07:17:26;;;;;;;14.50;5.50;;;;;;;7.63;73.94;97390.85;108788;1276;22008;-80
2022/02/17 07:20:22;;;;;;;9.50;4.70;;;;;;;7.70;73.69;97400.14;108621;1279;22011;-80
2022/02/17 07:23:25;;;;;;;;;;;;;;;;;;;;;
2022/02/17 07:29:52;;;;;;;10.90;3.50;;;;;;;7.98;73.10;97434.27;109247;1268;22792;-79
2022/02/17 07:32:40;;;;;;;9.00;3.50;;;;;;;8.07;72.61;97468.98;109368;1268;23083;-80
2022/02/17 07:35:18;;;;;;;;;;;;;;;8.07;72.29;97458.80;109473;1268;22311;-81
2022/02/17 07:38:23;;;;;;;5.80;2.80;;;;;;;8.01;72.20;97455.22;109373;1268;21944;-80
2022/02/17 07:41:19;;;;;;;;;;;;;;;;;;;;;
2022/02/17 07:44:25;;;;;;;10.20;5.50;;;;;;;8.03;72.29;97452.16;108982;1272;23214;-79
2022/02/17 07:47:12;;;;;;;9.00;5.00;;;;;;;8.11;72.47;97454.58;108833;1272;23723;-78
2022/02/17 07:50:37;;;;;;;;;;;;;;;;;;;;;
2022/02/17 07:53:31;;;;;;;9.30;3.90;;;;;;;8.35;72.58;97423.98;109045;1266;22007;-81
2022/02/17 07:56:40;;;;;;;8.00;4.20;;;;;;;8.55;72.52;97422.85;110199;1256;21942;-77
2022/02/17 08:00:15;;;;;;;;;;;;;;;;;;;;;
2022/02/17 08:03:39;;;;;;;;;;;;;;;;;;;;;
2022/02/17 08:07:43;;;;;;;10.00;5.00;;;;;;;9.00;70.99;97444.27;110712;1256;23340;-78
2022/02/17 08:11:10;;;;;;;;;;;;;;;;;;;;;
2022/02/17 08:15:08;;;;;;;7.00;3.90;;;;;;;9.89;71.21;97464.60;110309;1257;22511;-80
2022/02/17 08:18:15;;;;;;;8.50;4.50;;;;;;;10.49;69.92;97472.92;109644;1262;21970;-79
2022/02/17 08:22:15;;;;;;;8.90;3.80;;;;;;;10.90;68.61;97470.28;109631;1265;21997;-80
2022/02/17 08:25:40;;;;;;;22.50;15.90;;;;;;;11.45;67.96;97473.30;109637;1265;22451;-80
2022/02/17 08:28:56;;;;;;;;;;;;;;;;;;;;;
2022/02/17 08:32:17;;;;;;;;;;;;;;;;;;;;;
2022/02/17 08:39:30;;;;;;;6.60;4.00;;;;;;;12.98;62.79;97447.42;109326;1268;23697;-79
2022/02/17 08:42:31;;;;;;;13.00;6.60;;;;;;;13.36;61.46;97442.60;108990;1272;22085;-81
2022/02/17 08:45:17;;;;;;;;;;;;;;;;;;;;;
2022/02/17 08:48:04;;;;;;;9.00;6.80;;;;;;;13.19;57.61;97440.54;108936;1267;23626;-76
2022/02/17 08:51:16;;;;;;;;;;;;;;;;;;;;;
2022/02/17 08:54:42;;;;;;;6.30;3.70;;;;;;;12.88;56.99;97445.83;110001;1256;21990;-77
2022/02/17 08:57:29;;;;;;;8.90;4.90;;;;;;;12.56;56.59;97441.95;110028;1260;21985;-78
2022/02/17 09:00:33;;;;;;;8.30;4.00;;;;;;;12.33;56.90;97445.55;109900;1260;22756;-77
2022/02/17 09:04:03;;;;;;;;;;;;;;;;;;;;;
2022/02/17 09:07:11;;;;;;;6.50;3.70;;;;;;;12.34;56.68;97450.70;109529;1263;23156;-78
2022/02/17 09:10:13;;;;;;;8.80;4.90;;;;;;;12.04;56.12;97456.14;109214;1267;22054;-77
2022/02/17 09:13:20;;;;;;;6.50;3.50;;;;;;;11.81;56.52;97472.05;109245;1267;23061;-77
2022/02/17 09:16:53;;;;;;;9.50;3.90;;;;;;;11.70;56.76;97478.45;109402;1262;22028;-77
2022/02/17 09:19:43;;;;;;;7.50;3.40;;;;;;;11.46;55.99;97485.60;110144;1254;24315;-78
2022/02/17 09:22:44;;;;;;;6.70;3.10;;;;;;;11.14;56.31;97482.55;110494;1256;23817;-77
2022/02/17 09:25:44;;;;;;;6.20;3.80;;;;;;;10.99;56.94;97481.83;109935;1260;22040;-78
2022/02/17 09:29:11;;;;;;;;;;;;;;;;;;;;;
2022/02/17 09:34:13;;;;;;;;;;;;;;;;;;;;;
2022/02/17 09:38:12;;;;;;;9.20;3.40;;;;;;;11.20;56.69;97498.10;109638;1263;21989;-78
2022/02/17 09:41:42;;;;;;;;;;;;;;;;;;;;;
2022/02/17 09:45:56;;;;;;;;;;;;;;;;;;;;;
2022/02/17 09:49:20;;;;;;;;;;;;;;;;;;;;;
2022/02/17 09:52:50;;;;;;;;;;;;;;;;;;;;;
2022/02/17 09:57:02;;;;;;;;;;;;;;;;;;;;;
2022/02/17 09:59:54;;;;;;;8.70;3.00;;;;;;;11.31;52.74;97484.27;109776;1260;22233;-77
2022/02/17 10:02:25;;;;;;;8.60;3.60;;;;;;;11.31;52.67;97492.37;109981;1260;22001;-77
2022/02/17 10:04:55;;;;;;;10.30;3.40;;;;;;;11.43;52.49;97496.02;109789;1261;21995;-77
2022/02/17 10:08:03;;;;;;;10.10;3.30;;;;;;;11.57;52.00;97497.01;109946;1259;22115;-77
2022/02/17 10:12:40;;;;;;;;;;;;;;;;;;;;;
2022/02/17 10:15:52;;;;;;;;;;;;;;;;;;;;;
2022/02/17 10:19:10;;;;;;;10.40;3.70;;;;;;;11.80;51.23;97515.83;108710;1272;22137;-77
2022/02/17 10:22:23;;;;;;;;;;;;;;;;;;;;;
2022/02/17 10:26:00;;;;;;;7.80;2.70;;;;;;;11.37;50.30;97520.10;109632;1260;23628;-77
2022/02/17 10:30:10;;;;;;;;;;;;;;;;;;;;;
2022/02/17 10:38:10;;;;;;;8.60;3.40;;;;;;;10.99;50.42;97505.04;108942;1270;22447;-77
2022/02/17 10:41:46;;;;;;;;;;;;;;;;;;;;;
2022/02/17 10:45:18;;;;;;;;;;;;;;;;;;;;;
2022/02/17 10:48:59;;;;;;;8.00;4.30;;;;;;;10.66;50.81;97516.52;108343;1279;22010;-77
2022/02/17 10:52:13;;;;;;;9.70;3.60;;;;;;;10.54;50.98;97516.11;109362;1260;22051;-77
2022/02/17 10:57:07;;;;;;;;;;;;;;;;;;;;;
2022/02/17 11:00:07;;;;;;;9.30;2.90;;;;;;;10.26;51.43;97534.56;110172;1256;22748;-78
2022/02/17 11:03:55;;;;;;;;;;;;;;;;;;;;;
2022/02/17 11:07:29;;;;;;;;;;;;;;;;;;;;;
2022/02/17 11:14:13;;;;;;;7.60;2.80;;;;;;;10.13;50.35;97548.08;109005;1268;23146;-76
2022/02/17 11:17:39;;;;;;;;;;;;;;;;;;;;;
2022/02/17 11:21:47;;;;;;;7.20;3.40;;;;;;;10.55;49.99;97545.04;110246;1253;22013;-77
2022/02/17 11:26:18;;;;;;;10.80;3.70;;;;;;;10.53;49.23;97534.91;109656;1263;22145;-78
2022/02/17 11:29:30;;;;;;;10.10;4.00;;;;;;;10.48;49.57;97537.42;109691;1259;21998;-77
2022/02/17 11:36:00;;;;;;;;;;;;;;;;;;;;;
2022/02/17 11:38:58;;;;;;;;;;;;;;;;;;;;;
2022/02/17 11:42:15;;;;;;;;;;;;;;;;;;;;;
2022/02/17 11:46:13;;;;;;;;;;;;;;;;;;;;;
2022/02/17 11:50:20;;;;;;;10.40;3.80;;;;;;;10.50;49.50;97582.85;110617;1251;22013;-77
2022/02/17 11:59:47;;;;;;;;;;;;;;;;;;;;;
2022/02/17 12:02:57;;;;;;;15.70;3.10;;;;;;;10.21;49.39;97651.95;109115;1266;22083;-78
2022/02/17 12:06:06;;;;;;;7.30;2.90;;;;;;;10.10;49.73;97654.78;108960;1266;23719;-77
2022/02/17 12:12:41;;;;;;;9.80;3.20;;;;;;;9.73;50.83;97687.09;109221;1259;23811;-77
2022/02/17 12:18:53;;;;;;;;;;;;;;;;;;;;;
2022/02/17 12:22:22;;;;;;;8.10;3.60;;;;;;;9.02;53.83;97698.33;109871;1261;23994;-77
2022/02/17 12:26:02;;;;;;;;;;;;;;;;;;;;;
2022/02/17 12:30:00;;;;;;;;;;;;;;;;;;;;;
2022/02/17 12:33:21;;;;;;;10.40;3.40;;;;;;;8.90;55.67;97687.16;109369;1265;22918;-79
2022/02/17 12:37:01;;;;;;;;;;;;;;;;;;;;;
2022/02/17 12:40:12;;;;;;;9.20;3.70;;;;;;;8.98;55.64;97697.25;109102;1266;23770;-77
2022/02/17 12:43:38;;;;;;;8.10;3.60;;;;;;;9.03;55.59;97701.92;109289;1265;22082;-78
2022/02/17 12:46:48;;;;;;;;;;;;;;;;;;;;;
2022/02/17 12:50:08;;;;;;;9.10;3.50;;;;;;;9.05;55.29;97711.21;109523;1262;22885;-77
2022/02/17 12:53:32;;;;;;;;;;;;;;;;;;;;;
2022/02/17 12:56:50;;;;;;;12.30;3.30;;;;;;;9.16;55.82;97718.98;109222;1265;21972;-78
2022/02/17 13:03:48;;;;;;;8.80;2.90;;;;;;;9.35;55.74;97753.75;108844;1269;21999;-79
2022/02/17 13:06:55;;;;;;;;;;;;;;;;;;;;;
2022/02/17 13:10:19;;;;;;;;;;;;;;;;;;;;;
2022/02/17 13:13:19;;;;;;;;;;;;;;;;;;;;;
2022/02/17 13:16:32;;;;;;;9.20;2.30;;;;;;;8.98;56.07;97784.84;109840;1260;22022;-78
2022/02/17 13:20:00;;;;;;;10.10;3.20;;;;;;;8.86;56.35;97790.87;109611;1260;23718;-77
2022/02/17 13:23:02;;;;;;;8.10;3.30;;;;;;;8.73;56.85;97806.06;108947;1269;21958;-77
2022/02/17 13:25:56;;;;;;;6.70;3.00;;;;;;;8.59;57.44;97815.48;108983;1267;23739;-76
2022/02/17 13:29:09;;;;;;;;;;;;;;;;;;;;;
2022/02/17 13:32:57;;;;;;;;;;;;;;;;;;;;;
2022/02/17 13:35:39;;;;;;;11.80;3.50;;;;;;;8.29;59.08;97839.91;109374;1264;21963;-77
2022/02/17 13:38:37;;;;;;;9.20;3.70;;;;;;;8.13;59.50;97835.67;109206;1267;23743;-76
2022/02/17 13:42:37;;;;;;;13.80;3.40;;;;;;;8.00;59.97;97834.13;110359;1257;22861;-78
2022/02/17 13:45:58;;;;;;;7.30;3.20;;;;;;;7.92;60.58;97845.59;109407;1267;23626;-77
2022/02/17 13:49:56;;;;;;;;;;;;;;;;;;;;;
2022/02/17 13:53:04;;;;;;;10.10;3.40;;;;;;;7.93;61.11;97847.41;110047;1260;23906;-78
2022/02/17 13:56:50;;;;;;;;;;;;;;;;;;;;;
2022/02/17 14:00:31;;;;;;;7.40;3.30;;;;;;;7.91;61.08;97863.48;109453;1262;21982;-77
2022/02/17 14:04:21;;;;;;;;;;;;;;;;;;;;;
2022/02/17 14:08:05;;;;;;;5.70;3.30;;;;;;;7.82;61.36;97879.83;110569;1254;22170;-77
2022/02/17 14:11:56;;;;;;;;;;;;;;;;;;;;;
2022/02/17 14:15:48;;;;;;;;;;;;;;;;;;;;;
2022/02/17 14:19:56;;;;;;;6.00;3.20;;;;;;;7.64;62.08;97939.98;111155;1250;23632;-78
2022/02/17 14:24:02;;;;;;;;;;;;;;;;;;;;;
2022/02/17 14:27:55;;;;;;;;;;;;;;;;;;;;;
2022/02/17 14:34:44;;;;;;;;;;;;;;;;;;;;;
2022/02/17 14:38:23;;;;;;;;;;;;;;;;;;;;;
2022/02/17 14:45:49;;;;;;;;;;;;;;;;;;;;;
2022/02/17 14:49:40;;;;;;;7.20;3.60;;;;;;;6.87;65.61;98027.91;109949;1260;23041;-78
2022/02/17 14:53:31;;;;;;;;;;;;;;;;;;;;;
2022/02/17 15:14:31;;;;;;;6.40;2.90;;;;;;;8.15;64.46;98074.52;107598;1289;548570;-77
2022/02/17 15:17:05;;;;;;;8.20;3.10;;;;;;;8.25;63.54;98129.70;110617;1253;274769;-78
2022/02/17 15:20:16;;;;;;;5.80;3.10;;;;;;;7.71;64.62;98156.90;110543;1256;21970;-77
2022/02/17 15:23:39;;;;;;;5.50;2.20;;;;;;;7.23;65.57;98166.58;110562;1257;22202;-78
2022/02/17 15:26:30;;;;;;;4.60;1.90;;;;;;;6.93;66.28;98176.27;109973;1260;21974;-76
2022/02/17 15:29:07;;;;;;;3.70;1.60;;;;;;;6.70;66.61;98173.61;109231;1267;22405;-76
2022/02/17 15:32:08;;;;;;;;;;;;;;;;;;;;;
2022/02/17 15:35:36;;;;;;;2.70;2.30;;;;;;;6.29;67.63;98178.19;108541;1279;23504;-75
2022/02/17 15:38:18;;;;;;;5.70;2.10;;;;;;;6.17;68.16;98183.40;108368;1282;21969;-76
2022/02/17 15:41:08;;;;;;;3.20;2.00;;;;;;;6.08;68.56;98195.60;108423;1281;22123;-77
2022/02/17 15:43:59;;;;;;;2.70;2.10;;;;;;;6.02;68.86;98210.73;108069;1279;22081;-77
2022/02/17 15:47:15;;;;;;;;;;;;;;;;;;;;;
2022/02/17 15:51:28;;;;;;;5.70;3.90;;;;;;;5.96;69.20;98230.66;109419;1266;21992;-77
2022/02/17 15:54:46;;;;;;;;;;;;;;;;;;;;;
2022/02/17 15:58:50;;;;;;;;;;;;;;;;;;;;;
2022/02/17 16:01:39;;;;;;;4.80;2.70;;;;;;;5.93;69.93;98252.24;108897;1270;23674;-76
2022/02/17 16:04:28;;;;;;;6.60;4.50;;;;;;;5.96;70.13;98256.77;108969;1271;22093;-78
2022/02/17 16:07:27;;;;;;;6.20;3.80;;;;;;;6.01;70.16;98271.31;108869;1270;24499;-78
2022/02/17 16:10:09;;;;;;;6.00;3.20;;;;;;;6.02;70.29;98276.56;108973;1273;22885;-79
2022/02/17 16:13:12;;;;;;;;;;;;;;;;;;;;;
2022/02/17 16:16:28;;;;;;;;;;;;;;;6.08;70.20;98289.81;108366;1279;22103;-77
2022/02/17 16:19:51;;;;;;;5.90;2.70;;;;;;;6.03;70.26;98302.18;108565;1277;21964;-77
2022/02/17 16:22:46;;;;;;;7.40;3.40;;;;;;;6.05;70.03;98308.23;108676;1277;22075;-77
2022/02/17 16:26:03;;;;;;;5.80;2.60;;;;;;;6.07;69.81;98322.78;108694;1273;22222;-77
2022/02/17 16:28:58;;;;;;;7.10;4.40;;;;;;;6.05;69.57;98334.02;108656;1276;21994;-77
2022/02/17 16:31:30;;;;;;;4.90;2.80;;;;;;;6.07;69.38;98356.93;108956;1270;23702;-78
2022/02/17 16:34:12;;;;;;;;;;;;;;;;;;;;;
2022/02/17 16:37:23;;;;;;;;;;;;;;;;;;;;;
2022/02/17 16:40:25;;;;;;;4.00;2.30;;;;;;;6.02;68.31;98384.20;109632;1263;22229;-78
2022/02/17 16:44:07;;;;;;;;;;;;;;;;;;;;;
2022/02/17 16:47:28;;;;;;;5.90;2.40;;;;;;;5.93;67.80;98405.07;109566;1268;22787;-77
2022/02/17 16:50:30;;;;;;;4.50;2.30;;;;;;;5.92;67.61;98421.25;109152;1271;22008;-76
2022/02/17 16:53:14;;;;;;;4.40;2.30;;;;;;;5.91;67.10;98431.06;109045;1270;22782;-76
2022/02/17 16:55:50;;;;;;;3.30;1.80;;;;;;;5.85;67.06;98443.02;109021;1271;22311;-78
2022/02/17 16:58:30;;;;;;;2.70;1.40;;;;;;;5.77;66.84;98466.02;109051;1271;23070;-78
2022/02/17 17:01:16;;;;;;;4.70;2.10;;;;;;;5.66;66.78;98467.52;108828;1273;21997;-78
2022/02/17 17:04:14;;;;;;;3.70;1.90;;;;;;;5.54;66.88;98474.54;108752;1274;22865;-77
2022/02/17 17:06:48;;;;;;;3.80;2.00;;;;;;;5.46;67.25;98480.75;109348;1267;22023;-76
2022/02/17 17:09:24;;;;;;;3.00;1.80;;;;;;;5.37;67.44;98486.80;108766;1270;22084;-76
2022/02/17 17:12:25;;;;;;;3.80;2.10;;;;;;;5.31;67.71;98497.17;108752;1276;23063;-76
2022/02/17 17:15:06;;;;;;;6.00;3.40;;;;;;;5.23;67.97;98502.06;108767;1276;21991;-77
2022/02/17 17:17:56;;;;;;;4.30;2.50;;;;;;;5.14;68.18;98502.38;108692;1276;23481;-77
2022/02/17 17:20:59;;;;;;;3.20;2.00;;;;;;;5.02;68.48;98507.36;108740;1273;22781;-77
2022/02/17 17:23:44;;;;;;;3.10;1.90;;;;;;;4.91;68.65;98512.05;108920;1270;22062;-76
2022/02/17 17:26:20;;;;;;;2.70;2.20;;;;;;;4.84;69.07;98515.42;109394;1268;21994;-76
2022/02/17 17:29:19;;;;;;;2.90;1.60;;;;;;;4.82;69.60;98520.09;109391;1270;21985;-77
2022/02/17 17:32:28;;;;;;;;;;;;;;;;;;;;;
2022/02/17 17:36:07;;;;;;;;;;;;;;;;;;;;;
2022/02/17 17:39:59;;;;;;;4.40;2.90;;;;;;;4.89;70.37;98542.48;109404;1267;24309;-76
2022/02/17 17:48:28;;;;;;;;;;;;;;;;;;;;;
2022/02/17 17:52:24;;;;;;;;;;;;;;;;;;;;;
2022/02/17 17:55:42;;;;;;;5.20;2.60;;;;;;;5.00;71.65;98574.89;108761;1279;22252;-76
2022/02/17 17:58:36;;;;;;;4.50;2.90;;;;;;;5.03;71.60;98581.31;108316;1280;22308;-76
2022/02/17 18:02:31;;;;;;;;;;;;;;;5.03;71.58;98584.69;108364;1279;22080;-79
2022/02/17 18:05:35;;;;;;;;;;;;;;;;;;;;;
2022/02/17 18:09:15;;;;;;;;;;;;;;;;;;;;;
2022/02/17 18:12:54;;;;;;;;;;;;;;;;;;;;;
2022/02/17 18:16:58;;;;;;;7.00;5.00;;;;;;;5.05;72.63;98599.75;108777;1279;22121;-78
2022/02/17 18:20:23;;;;;;;7.70;5.10;;;;;;;5.14;73.02;98604.52;108202;1283;22046;-82
2022/02/17 18:23:49;;;;;;;;;;;;;;;;;;;;;
2022/02/17 18:27:29;;;;;;;7.20;4.20;;;;;;;5.35;73.37;98606.78;107728;1293;22038;-80
2022/02/17 18:29:59;;;;;;;7.30;4.10;;;;;;;5.45;73.49;98615.20;107605;1292;22985;-80
2022/02/17 18:32:32;;;;;;;7.90;4.60;;;;;;;5.53;73.44;98614.27;107283;1292;22019;-76
2022/02/17 18:35:35;;;;;;;;;;;;;;;;;;;;;
2022/02/17 18:38:47;;;;;;;8.40;4.10;;;;;;;5.65;73.46;98623.73;107151;1297;22330;-76
2022/02/17 18:41:37;;;;;;;8.10;4.90;;;;;;;5.73;73.29;98633.18;106959;1297;22088;-76
2022/02/17 18:44:06;;;;;;;8.80;5.10;;;;;;;5.73;72.96;98640.81;106613;1297;23016;-76
2022/02/17 18:46:34;;;;;;;7.50;3.90;;;;;;;5.71;72.81;98643.48;107329;1288;22037;-76
2022/02/17 18:49:04;;;;;;;6.20;4.20;;;;;;;5.67;72.76;98640.96;107659;1288;23721;-76
2022/02/17 18:51:52;;;;;;;8.00;3.70;;;;;;;5.63;72.74;98645.61;107718;1288;22207;-76
2022/02/17 18:54:34;;;;;;;7.50;2.90;;;;;;;5.60;72.72;98644.80;107796;1285;22025;-76
2022/02/17 18:57:05;;;;;;;5.30;2.90;;;;;;;5.56;72.91;98649.09;108433;1276;22810;-75
2022/02/17 18:59:36;;;;;;;5.00;3.10;;;;;;;5.54;73.02;98644.71;108246;1279;23164;-76
2022/02/17 19:02:19;;;;;;;5.30;2.70;;;;;;;5.53;73.07;98662.53;108301;1272;22595;-77
2022/02/17 19:04:54;;;;;;;8.20;2.90;;;;;;;5.52;73.00;98666.67;109398;1265;23714;-76
2022/02/17 19:07:28;;;;;;;4.30;2.90;;;;;;;5.51;72.92;98672.02;109459;1266;21976;-76
2022/02/17 19:10:11;;;;;;;5.00;2.60;;;;;;;5.52;72.84;98679.73;109241;1266;24367;-77
2022/02/17 19:12:47;;;;;;;7.20;3.00;;;;;;;5.51;72.67;98689.63;109405;1265;22094;-76
2022/02/17 19:15:21;;;;;;;4.40;2.40;;;;;;;5.51;72.47;98685.77;109308;1266;23072;-76
2022/02/17 19:17:57;;;;;;;5.60;2.80;;;;;;;5.51;72.17;98701.02;109795;1254;21934;-77
2022/02/17 19:20:30;;;;;;;6.00;3.50;;;;;;;5.51;72.11;98699.42;110648;1251;21994;-77
2022/02/17 19:23:08;;;;;;;7.30;3.00;;;;;;;5.51;72.00;98710.21;110722;1251;22038;-75
2022/02/17 19:25:39;;;;;;;5.10;2.50;;;;;;;5.51;71.77;98715.27;110655;1251;23579;-76
2022/02/17 19:28:12;;;;;;;;;;;;;;;5.53;71.58;98716.30;110733;1251;23656;-76
2022/02/17 19:30:58;;;;;;;4.60;2.30;;;;;;;5.48;71.61;98719.02;110763;1254;23650;-77
2022/02/17 19:33:31;;;;;;;6.20;2.70;;;;;;;5.48;71.40;98724.63;110854;1251;23061;-76
2022/02/17 19:36:01;;;;;;;5.50;2.80;;;;;;;5.52;71.29;98725.34;110550;1253;22392;-77
2022/02/17 19:38:33;;;;;;;4.60;2.50;;;;;;;5.55;71.08;98733.73;110833;1251;22501;-76
2022/02/17 19:41:07;;;;;;;5.80;3.20;;;;;;;5.57;70.87;98740.08;110654;1251;23728;-77
2022/02/17 19:43:38;;;;;;;8.40;3.80;;;;;;;5.60;70.68;98742.91;110454;1256;24359;-76
2022/02/17 19:46:17;;;;;;;7.40;4.20;;;;;;;5.62;70.37;98744.25;110280;1258;22051;-77
2022/02/17 19:48:47;;;;;;;7.90;3.70;;;;;;;5.62;70.26;98746.64;110353;1257;21964;-75
2022/02/17 19:51:26;;;;;;;8.60;4.20;;;;;;;5.65;70.18;98748.61;109767;1263;21946;-76
2022/02/17 19:53:57;;;;;;;4.70;2.70;;;;;;;5.67;69.95;98750.38;109657;1263;22322;-76
2022/02/17 19:56:37;;;;;;;7.00;3.10;;;;;;;5.66;69.81;98754.80;109589;1267;21994;-76
2022/02/17 19:59:28;;;;;;;5.60;2.70;;;;;;;5.67;69.64;98761.02;109170;1267;22973;-75
2022/02/17 20:02:04;;;;;;;7.10;2.70;;;;;;;5.68;69.48;98768.21;109378;1263;23627;-76
2022/02/17 20:04:42;;;;;;;10.30;3.70;;;;;;;5.69;69.28;98771.73;109665;1263;22292;-76
2022/02/17 20:07:18;;;;;;;8.00;3.50;;;;;;;5.70;69.09;98780.67;109842;1263;22910;-76
2022/02/17 20:09:55;;;;;;;8.10;3.60;;;;;;;5.71;69.00;98777.63;109613;1263;22006;-76
2022/02/17 20:12:30;;;;;;;7.60;4.30;;;;;;;5.72;68.85;98777.73;109637;1263;22027;-75
2022/02/17 20:15:23;;;;;;;9.60;4.80;;;;;;;5.74;68.71;98784.09;110086;1261;22003;-75
2022/02/17 20:17:55;;;;;;;10.50;4.30;;;;;;;5.74;68.52;98783.40;109966;1263;21997;-75
2022/02/17 20:20:26;;;;;;;8.90;4.10;;;;;;;5.73;68.49;98787.17;109887;1260;22523;-76
2022/02/17 20:23:00;;;;;;;9.10;3.40;;;;;;;5.75;68.44;98790.86;110118;1258;22283;-76
2022/02/17 20:25:40;;;;;;;8.70;4.00;;;;;;;5.74;68.29;98785.90;110157;1257;24365;-76
2022/02/17 20:29:11;;;;;;;11.80;3.80;;;;;;;5.70;68.22;98791.25;110179;1260;23123;-75
2022/02/17 20:33:01;;;;;;;;;;;;;;;;;;;;;